Terminal Aerodrome Forecast
Issued by NWS Wilmington, OH

Current Version | Previous Version | Text Only | Print | Product List | Glossary Off
Versions: 1 2 3 4 5 6 7 8 9 10 11 12 13 14 15 16 17 18 19 20 21 22 23 24 25 26 27 28 29 30 31 32 33 34 35 36 37 38 39

000
FTUS41 KILN 290530
TAFCVG
TAF
KCVG 290530Z 2906/3012 32004KT 5SM BR BKN005
     FM290900 30004KT 2SM BR BKN005
     FM291400 32006KT P6SM BKN015
     FM291600 30008KT P6SM BKN035
     FM300000 05005KT P6SM SCT035
     FM301000 09008KT P6SM VCSH BKN060=

USA.gov is the U.S. government's official web portal to all federal, state and local government web resources and services.